PORTS® Data Listing: 8519483 Bergen Point West Reach, NY

CO-OPS RAW PORTS DATA

************************      PRELIMINARY DATA      ************************** 

     THIS RAW DATA HAS NOT BEEN SUBJECT TO THE NATIONAL OCEAN SERVICE'S        
     QUALITY CONTROL OR QUALITY ASSURANCE PROCEDURES AND DOES NOT MEET         
     THE CRITERIA AND STANDARDS OF OFFICIAL NATIONAL OCEAN SERVICE             
     DATA.  IT IS RELEASED FOR LIMITED PUBLIC USE AS PRELIMINARY DATA TO       
     BE USED ONLY WITH APPROPRIATE CAUTION.                                    

************************      PRELIMINARY DATA      ************************** 


       CD   -   Calendar date
       T    -   Time
       TZ   -   Timezone
       PW   -   Predicted water level (feet above MLLW)
       OW   -   Observed water level (feet above MLLW)
       WS   -   Wind speed (knots)
       WD   -   Wind direction (degrees true)
       WG   -   Wind gust (knots)
       AT   -   Air temperature (degrees farenheit)
       WT   -   Water temperature (degrees farenheit)
       AP   -   Air pressure (millibars)
       SA   -   Salinty (PSU - Practical Salinity Units)
       SG   -   Specific gravity
       RH   -   Relative humidity
       AG   -   Air gap (feet)
       VI   -   Visibility (nautical miles)

       ** NOTE **
       A variable that has its data fields filled with "9"s, indicates that
       data was not collected for that sample period.
       **********


STATION NAME: Bergen Point West Reach (8519483)
****************************************************************************************************
    CD       T    TZ    PW     OW    WS   WD   WG    AT    WT    AP    SA    SG     RH    AG   VI
****************************************************************************************************
2019/09/15 08:12 EDT    4.81   5.06 -999 -999 -999  71.2  72.5 1021.4 -9.9 -9.999 -99.9 -99.99 -9.99
2019/09/15 08:18 EDT    4.89   5.11 -999 -999 -999  71.1  72.5 1021.5 -9.9 -9.999 -99.9 -99.99 -9.99
2019/09/15 08:24 EDT    4.96   5.15 -999 -999 -999  70.9  72.5 1021.5 -9.9 -9.999 -99.9 -99.99 -9.99
2019/09/15 08:30 EDT    5.02   5.21 -999 -999 -999  70.9  72.5 1021.5 -9.9 -9.999 -99.9 -99.99 -9.99
2019/09/15 08:36 EDT    5.08   5.25 -999 -999 -999  70.9  72.5 1021.6 -9.9 -9.999 -99.9 -99.99 -9.99
2019/09/15 08:42 EDT    5.14   5.28 -999 -999 -999  70.9  72.5 1021.6 -9.9 -9.999 -99.9 -99.99 -9.99
2019/09/15 08:48 EDT    5.19   5.30 -999 -999 -999  70.9  72.5 1021.6 -9.9 -9.999 -99.9 -99.99 -9.99
2019/09/15 08:54 EDT    5.23   5.33 -999 -999 -999  70.7  72.5 1021.6 -9.9 -9.999 -99.9 -99.99 -9.99
2019/09/15 09:00 EDT    5.27   5.33 -999 -999 -999  71.1  72.5 1021.6 -9.9 -9.999 -99.9 -99.99 -9.99
2019/09/15 09:06 EDT    5.31   5.38 -999 -999 -999  71.2  72.5 1021.6 -9.9 -9.999 -99.9 -99.99 -9.99
2019/09/15 09:12 EDT    5.34   5.39 -999 -999 -999  71.4  72.5 1021.6 -9.9 -9.999 -99.9 -99.99 -9.99
2019/09/15 09:18 EDT    5.36   5.39 -999 -999 -999  71.6  72.5 1021.7 -9.9 -9.999 -99.9 -99.99 -9.99
2019/09/15 09:24 EDT    5.38   5.40 -999 -999 -999  72.0  72.5 1021.6 -9.9 -9.999 -99.9 -99.99 -9.99
2019/09/15 09:30 EDT    5.39   5.41 -999 -999 -999  72.0  72.5 1021.7 -9.9 -9.999 -99.9 -99.99 -9.99
2019/09/15 09:36 EDT    5.40   5.43 -999 -999 -999  71.8  72.7 1021.6 -9.9 -9.999 -99.9 -99.99 -9.99
2019/09/15 09:42 EDT    5.41   5.45 -999 -999 -999  72.0  72.7 1021.6 -9.9 -9.999 -99.9 -99.99 -9.99
2019/09/15 09:48 EDT    5.41   5.46 -999 -999 -999  72.0  72.7 1021.6 -9.9 -9.999 -99.9 -99.99 -9.99
2019/09/15 09:54 EDT    5.40   5.49 -999 -999 -999  72.3  72.7 1021.6 -9.9 -9.999 -99.9 -99.99 -9.99
2019/09/15 10:00 EDT    5.39   5.48 -999 -999 -999  72.5  72.7 1021.6 -9.9 -9.999 -99.9 -99.99 -9.99
2019/09/15 10:06 EDT    5.37   5.48 -999 -999 -999  72.3  72.7 1021.6 -9.9 -9.999 -99.9 -99.99 -9.99
2019/09/15 10:12 EDT    5.35   5.45 -999 -999 -999  72.1  72.7 1021.7 -9.9 -9.999 -99.9 -99.99 -9.99
2019/09/15 10:18 EDT    5.32   5.44 -999 -999 -999  72.9  72.7 1021.7 -9.9 -9.999 -99.9 -99.99 -9.99
2019/09/15 10:24 EDT    5.29   5.45 -999 -999 -999  72.9  72.9 1021.6 -9.9 -9.999 -99.9 -99.99 -9.99
2019/09/15 10:30 EDT    5.25   5.42 -999 -999 -999  73.0  72.9 1021.7 -9.9 -9.999 -99.9 -99.99 -9.99
2019/09/15 10:36 EDT    5.20   5.38 -999 -999 -999  73.6  72.9 1021.7 -9.9 -9.999 -99.9 -99.99 -9.99
2019/09/15 10:42 EDT    5.15   5.34 -999 -999 -999  73.8  72.9 1021.7 -9.9 -9.999 -99.9 -99.99 -9.99
2019/09/15 10:48 EDT    5.09   5.32 -999 -999 -999  73.2  72.9 1021.7 -9.9 -9.999 -99.9 -99.99 -9.99
2019/09/15 10:54 EDT    5.03   5.26 -999 -999 -999  73.2  72.9 1021.6 -9.9 -9.999 -99.9 -99.99 -9.99
2019/09/15 11:00 EDT    4.96   5.19 -999 -999 -999  73.4  72.9 1021.5 -9.9 -9.999 -99.9 -99.99 -9.99
2019/09/15 11:06 EDT    4.89   5.12 -999 -999 -999  73.9  72.9 1021.5 -9.9 -9.999 -99.9 -99.99 -9.99
2019/09/15 11:12 EDT    4.81   5.04 -999 -999 -999  73.6  72.9 1021.5 -9.9 -9.999 -99.9 -99.99 -9.99
2019/09/15 11:18 EDT    4.73   4.96 -999 -999 -999  73.9  72.9 1021.6 -9.9 -9.999 -99.9 -99.99 -9.99
2019/09/15 11:24 EDT    4.64   4.85 -999 -999 -999  74.1  72.9 1021.5 -9.9 -9.999 -99.9 -99.99 -9.99
2019/09/15 11:30 EDT    4.55   4.74 -999 -999 -999  74.5  72.9 1021.5 -9.9 -9.999 -99.9 -99.99 -9.99
2019/09/15 11:36 EDT    4.45   4.66 -999 -999 -999  74.8  73.0 1021.4 -9.9 -9.999 -99.9 -99.99 -9.99
2019/09/15 11:42 EDT    4.35   4.50 -999 -999 -999  75.2  73.2 1021.3 -9.9 -9.999 -99.9 -99.99 -9.99
2019/09/15 11:48 EDT    4.25   4.42 -999 -999 -999  75.7  73.2 1021.2 -9.9 -9.999 -99.9 -99.99 -9.99
2019/09/15 11:54 EDT    4.14   4.31 -999 -999 -999  75.4  73.2 1021.2 -9.9 -9.999 -99.9 -99.99 -9.99
2019/09/15 12:00 EDT    4.03   4.17 -999 -999 -999  75.7  73.2 1021.1 -9.9 -9.999 -99.9 -99.99 -9.99
2019/09/15 12:06 EDT    3.92   4.05 -999 -999 -999  76.1  73.2 1021.2 -9.9 -9.999 -99.9 -99.99 -9.99
2019/09/15 12:12 EDT    3.80   3.93 -999 -999 -999  75.9  73.2 1021.0 -9.9 -9.999 -99.9 -99.99 -9.99
2019/09/15 12:18 EDT    3.69   3.80 -999 -999 -999  77.4  73.2 1020.8 -9.9 -9.999 -99.9 -99.99 -9.99
2019/09/15 12:24 EDT    3.57   3.68 -999 -999 -999  76.3  73.2 1020.8 -9.9 -9.999 -99.9 -99.99 -9.99
2019/09/15 12:30 EDT    3.45   3.56 -999 -999 -999  75.9  73.2 1020.7 -9.9 -9.999 -99.9 -99.99 -9.99
2019/09/15 12:36 EDT    3.33   3.43 -999 -999 -999  76.5  73.2 1020.7 -9.9 -9.999 -99.9 -99.99 -9.99
2019/09/15 12:42 EDT    3.21   3.30 -999 -999 -999  76.5  73.4 1020.6 -9.9 -9.999 -99.9 -99.99 -9.99
2019/09/15 12:48 EDT    3.10   3.16 -999 -999 -999  77.2  73.4 1020.5 -9.9 -9.999 -99.9 -99.99 -9.99
2019/09/15 12:54 EDT    2.98   3.04 -999 -999 -999  76.6  73.4 1020.4 -9.9 -9.999 -99.9 -99.99 -9.99
2019/09/15 13:00 EDT    2.86   2.92 -999 -999 -999  76.8  73.4 1020.4 -9.9 -9.999 -99.9 -99.99 -9.99
2019/09/15 13:06 EDT    2.75   2.79 -999 -999 -999  77.4  73.4 1020.3 -9.9 -9.999 -99.9 -99.99 -9.99
2019/09/15 13:12 EDT    2.63   2.67 -999 -999 -999  77.7  73.6 1020.2 -9.9 -9.999 -99.9 -99.99 -9.99
2019/09/15 13:18 EDT    2.52   2.55 -999 -999 -999  79.2  73.8 1020.2 -9.9 -9.999 -99.9 -99.99 -9.99
2019/09/15 13:24 EDT    2.41   2.45 -999 -999 -999  79.3  73.8 1020.1 -9.9 -9.999 -99.9 -99.99 -9.99
2019/09/15 13:30 EDT    2.30   2.34 -999 -999 -999  79.5  73.8 1020.0 -9.9 -9.999 -99.9 -99.99 -9.99
2019/09/15 13:36 EDT    2.19   2.23 -999 -999 -999  79.3  73.9 1019.9 -9.9 -9.999 -99.9 -99.99 -9.99
2019/09/15 13:42 EDT    2.09   2.15 -999 -999 -999  81.1  73.9 1019.8 -9.9 -9.999 -99.9 -99.99 -9.99
2019/09/15 13:48 EDT    1.99   2.05 -999 -999 -999  80.1  73.9 1019.8 -9.9 -9.999 -99.9 -99.99 -9.99
2019/09/15 13:54 EDT    1.89   1.96 -999 -999 -999  80.2  73.9 1019.7 -9.9 -9.999 -99.9 -99.99 -9.99
2019/09/15 14:00 EDT    1.79   1.87 -999 -999 -999  79.7  74.1 1019.7 -9.9 -9.999 -99.9 -99.99 -9.99
2019/09/15 14:06 EDT    1.69   1.80 -999 -999 -999  79.7  74.1 1019.6 -9.9 -9.999 -99.9 -99.99 -9.99
2019/09/15 14:12 EDT    1.60   1.73 -999 -999 -999  79.5  74.3 1019.5 -9.9 -9.999 -99.9 -99.99 -9.99
2019/09/15 14:18 EDT    1.51   1.67 -999 -999 -999  79.5  74.3 1019.3 -9.9 -9.999 -99.9 -99.99 -9.99
2019/09/15 14:24 EDT    1.42   1.61 -999 -999 -999  79.0  74.3 1019.1 -9.9 -9.999 -99.9 -99.99 -9.99
2019/09/15 14:30 EDT    1.34   1.55 -999 -999 -999  79.2  74.3 1019.0 -9.9 -9.999 -99.9 -99.99 -9.99
2019/09/15 14:36 EDT    1.26   1.50 -999 -999 -999  79.7  74.3 1018.9 -9.9 -9.999 -99.9 -99.99 -9.99
2019/09/15 14:42 EDT    1.18   1.43 -999 -999 -999  79.9  74.3 1018.8 -9.9 -9.999 -99.9 -99.99 -9.99
2019/09/15 14:48 EDT    1.10   1.36 -999 -999 -999  81.3  74.3 1018.8 -9.9 -9.999 -99.9 -99.99 -9.99
2019/09/15 14:54 EDT    1.03   1.31 -999 -999 -999  79.9  74.3 1018.7 -9.9 -9.999 -99.9 -99.99 -9.99
2019/09/15 15:00 EDT    0.96   1.24 -999 -999 -999  81.5  74.5 1018.7 -9.9 -9.999 -99.9 -99.99 -9.99
2019/09/15 15:06 EDT    0.89   1.19 -999 -999 -999  81.3  74.3 1018.7 -9.9 -9.999 -99.9 -99.99 -9.99
2019/09/15 15:12 EDT    0.83   1.11 -999 -999 -999  81.1  74.5 1018.6 -9.9 -9.999 -99.9 -99.99 -9.99
2019/09/15 15:18 EDT    0.77   1.05 -999 -999 -999  81.1  74.5 1018.5 -9.9 -9.999 -99.9 -99.99 -9.99
2019/09/15 15:24 EDT    0.72   0.99 -999 -999 -999  81.5  74.5 1018.4 -9.9 -9.999 -99.9 -99.99 -9.99
2019/09/15 15:30 EDT    0.67   0.95 -999 -999 -999  81.5  74.3 1018.3 -9.9 -9.999 -99.9 -99.99 -9.99
2019/09/15 15:36 EDT    0.63   0.92 -999 -999 -999  81.9  74.3 1018.2 -9.9 -9.999 -99.9 -99.99 -9.99
2019/09/15 15:42 EDT    0.59   0.87 -999 -999 -999  81.5  74.3 1018.4 -9.9 -9.999 -99.9 -99.99 -9.99
2019/09/15 15:48 EDT    0.55   0.83 -999 -999 -999  81.1  74.3 1018.5 -9.9 -9.999 -99.9 -99.99 -9.99
2019/09/15 15:54 EDT    0.53   0.79 -999 -999 -999  81.5  74.3 1018.5 -9.9 -9.999 -99.9 -99.99 -9.99
2019/09/15 16:00 EDT    0.50   0.76 -999 -999 -999  81.3  74.3 1018.5 -9.9 -9.999 -99.9 -99.99 -9.99
2019/09/15 16:06 EDT    0.49   0.73 -999 -999 -999  81.1  74.3 1018.5 -9.9 -9.999 -99.9 -99.99 -9.99
2019/09/15 16:12 EDT    0.48   0.71 -999 -999 -999  81.1  74.3 1018.5 -9.9 -9.999 -99.9 -99.99 -9.99
2019/09/15 16:18 EDT    0.48   0.73 -999 -999 -999  81.1  74.1 1018.6 -9.9 -9.999 -99.9 -99.99 -9.99
2019/09/15 16:24 EDT    0.49   0.76 -999 -999 -999  81.5  74.1 1018.6 -9.9 -9.999 -99.9 -99.99 -9.99
2019/09/15 16:30 EDT    0.51   0.78 -999 -999 -999  81.1  74.1 1018.6 -9.9 -9.999 -99.9 -99.99 -9.99
2019/09/15 16:36 EDT    0.53   0.78 -999 -999 -999  81.3  74.1 1018.5 -9.9 -9.999 -99.9 -99.99 -9.99
2019/09/15 16:42 EDT    0.56   0.83 -999 -999 -999  81.7  73.9 1018.5 -9.9 -9.999 -99.9 -99.99 -9.99
2019/09/15 16:48 EDT    0.60   0.90 -999 -999 -999  81.3  73.9 1018.6 -9.9 -9.999 -99.9 -99.99 -9.99
2019/09/15 16:54 EDT    0.65   0.97 -999 -999 -999  81.0  73.8 1018.7 -9.9 -9.999 -99.9 -99.99 -9.99
2019/09/15 17:00 EDT    0.71   1.03 -999 -999 -999  81.3  73.8 1018.7 -9.9 -9.999 -99.9 -99.99 -9.99
2019/09/15 17:06 EDT    0.78   1.10 -999 -999 -999  80.8  73.8 1018.7 -9.9 -9.999 -99.9 -99.99 -9.99
2019/09/15 17:12 EDT    0.85   1.21 -999 -999 -999  81.0  73.8 1018.6 -9.9 -9.999 -99.9 -99.99 -9.99
2019/09/15 17:18 EDT    0.94   1.34 -999 -999 -999  81.0  73.8 1018.6 -9.9 -9.999 -99.9 -99.99 -9.99
2019/09/15 17:24 EDT    1.03   1.45 -999 -999 -999  81.0  73.8 1018.6 -9.9 -9.999 -99.9 -99.99 -9.99
2019/09/15 17:30 EDT    1.13   1.60 -999 -999 -999  80.8  73.9 1018.7 -9.9 -9.999 -99.9 -99.99 -9.99
2019/09/15 17:36 EDT    1.24   1.75 -999 -999 -999  81.0  73.9 1018.7 -9.9 -9.999 -99.9 -99.99 -9.99
2019/09/15 17:42 EDT    1.35   1.91 -999 -999 -999  80.2  73.8 1018.8 -9.9 -9.999 -99.9 -99.99 -9.99
2019/09/15 17:48 EDT    1.47   2.07 -999 -999 -999  79.9  73.8 1018.8 -9.9 -9.999 -99.9 -99.99 -9.99
2019/09/15 17:54 EDT    1.60   2.22 -999 -999 -999  80.1  73.8 1018.8 -9.9 -9.999 -99.9 -99.99 -9.99
2019/09/15 18:00 EDT    1.73   2.38 -999 -999 -999  80.2  73.8 1018.8 -9.9 -9.999 -99.9 -99.99 -9.99
2019/09/15 18:06 EDT    1.87   2.54 -999 -999 -999  80.6  73.8 1018.8 -9.9 -9.999 -99.9 -99.99 -9.99
2019/09/15 18:12 EDT    2.01   2.71 -999 -999 -999  80.4  73.8 1018.9 -9.9 -9.999 -99.9 -99.99 -9.99
2019/09/15 18:18 EDT    2.16   2.86 -999 -999 -999  80.2  73.8 1018.9 -9.9 -9.999 -99.9 -99.99 -9.99
2019/09/15 18:24 EDT    2.30   3.02 -999 -999 -999  79.7  73.8 1018.8 -9.9 -9.999 -99.9 -99.99 -9.99
2019/09/15 18:30 EDT    2.45   3.20 -999 -999 -999  79.2  73.6 1018.7 -9.9 -9.999 -99.9 -99.99 -9.99
2019/09/15 18:36 EDT    2.60   3.36 -999 -999 -999  79.0  73.6 1018.6 -9.9 -9.999 -99.9 -99.99 -9.99
2019/09/15 18:42 EDT    2.75   3.53 -999 -999 -999  78.4  73.6 1018.6 -9.9 -9.999 -99.9 -99.99 -9.99
2019/09/15 18:48 EDT    2.90   3.63 -999 -999 -999  78.4  73.6 1018.6 -9.9 -9.999 -99.9 -99.99 -9.99
2019/09/15 18:54 EDT    3.05   3.83 -999 -999 -999  78.3  73.4 1018.5 -9.9 -9.999 -99.9 -99.99 -9.99
2019/09/15 19:00 EDT    3.20   3.96 -999 -999 -999  78.3  73.4 1018.4 -9.9 -9.999 -99.9 -99.99 -9.99
2019/09/15 19:06 EDT    3.35   4.12 -999 -999 -999  77.9  73.2 1018.5 -9.9 -9.999 -99.9 -99.99 -9.99
2019/09/15 19:12 EDT    3.49   4.25 -999 -999 -999  77.7  73.2 1018.5 -9.9 -9.999 -99.9 -99.99 -9.99
2019/09/15 19:18 EDT    3.63   4.39 -999 -999 -999  78.1  73.2 1018.6 -9.9 -9.999 -99.9 -99.99 -9.99
2019/09/15 19:24 EDT    3.77   4.53 -999 -999 -999  77.5  73.2 1018.6 -9.9 -9.999 -99.9 -99.99 -9.99
2019/09/15 19:30 EDT    3.90   4.64 -999 -999 -999  77.0  73.0 1018.6 -9.9 -9.999 -99.9 -99.99 -9.99
2019/09/15 19:36 EDT    4.03   4.75 -999 -999 -999  76.6  73.2 1018.7 -9.9 -9.999 -99.9 -99.99 -9.99
2019/09/15 19:42 EDT    4.15   4.86 -999 -999 -999  76.5  73.2 1018.6 -9.9 -9.999 -99.9 -99.99 -9.99
2019/09/15 19:48 EDT    4.27   4.95 -999 -999 -999  76.3  73.2 1018.6 -9.9 -9.999 -99.9 -99.99 -9.99
2019/09/15 19:54 EDT    4.38   5.05 -999 -999 -999  76.1  73.2 1018.6 -9.9 -9.999 -99.9 -99.99 -9.99
2019/09/15 20:00 EDT    4.49   5.13 -999 -999 -999  75.9  73.2 1018.6 -9.9 -9.999 -99.9 -99.99 -9.99
2019/09/15 20:06 EDT    4.59   5.18 -999 -999 -999  76.1  73.2 1018.6 -9.9 -9.999 -99.9 -99.99 -9.99
2019/09/15 20:12 EDT    4.68   5.25 -999 -999 -999  76.3  73.2 1018.7 -9.9 -9.999 -99.9 -99.99 -9.99
2019/09/15 20:18 EDT    4.77   5.31 -999 -999 -999  76.6  73.2 1018.6 -9.9 -9.999 -99.9 -99.99 -9.99
2019/09/15 20:24 EDT    4.85   5.35 -999 -999 -999  76.3  73.2 1018.6 -9.9 -9.999 -99.9 -99.99 -9.99
2019/09/15 20:30 EDT    4.93 -99.99 -999 -999 -999 -99.9 -99.9 -999.9 -9.9 -9.999 -99.9 -99.99 -9.99
2019/09/15 20:36 EDT    5.00 -99.99 -999 -999 -999 -99.9 -99.9 -999.9 -9.9 -9.999 -99.9 -99.99 -9.99
2019/09/15 20:42 EDT    5.06 -99.99 -999 -999 -999 -99.9 -99.9 -999.9 -9.9 -9.999 -99.9 -99.99 -9.99
2019/09/15 20:48 EDT    5.12 -99.99 -999 -999 -999 -99.9 -99.9 -999.9 -9.9 -9.999 -99.9 -99.99 -9.99
2019/09/15 20:54 EDT    5.18 -99.99 -999 -999 -999 -99.9 -99.9 -999.9 -9.9 -9.999 -99.9 -99.99 -9.99
2019/09/15 21:00 EDT    5.22   5.59 -999 -999 -999  75.9  73.0 1018.4 -9.9 -9.999 -99.9 -99.99 -9.99
2019/09/15 21:06 EDT    5.27   5.61 -999 -999 -999  75.7  73.0 1018.4 -9.9 -9.999 -99.9 -99.99 -9.99
2019/09/15 21:12 EDT    5.31   5.62 -999 -999 -999  75.7  73.0 1018.4 -9.9 -9.999 -99.9 -99.99 -9.99
2019/09/15 21:18 EDT    5.34   5.64 -999 -999 -999  75.4  73.0 1018.3 -9.9 -9.999 -99.9 -99.99 -9.99
2019/09/15 21:24 EDT    5.37   5.65 -999 -999 -999  75.0  73.0 1018.3 -9.9 -9.999 -99.9 -99.99 -9.99
2019/09/15 21:30 EDT    5.39   5.66 -999 -999 -999  74.8  73.0 1018.4 -9.9 -9.999 -99.9 -99.99 -9.99
2019/09/15 21:36 EDT    5.41   5.67 -999 -999 -999  74.8  73.0 1018.4 -9.9 -9.999 -99.9 -99.99 -9.99
2019/09/15 21:42 EDT    5.42   5.68 -999 -999 -999  74.7  73.0 1018.4 -9.9 -9.999 -99.9 -99.99 -9.99
2019/09/15 21:48 EDT    5.43   5.68 -999 -999 -999  74.3  73.0 1018.4 -9.9 -9.999 -99.9 -99.99 -9.99
2019/09/15 21:54 EDT    5.43   5.68 -999 -999 -999  74.1  73.0 1018.4 -9.9 -9.999 -99.9 -99.99 -9.99
2019/09/15 22:00 EDT    5.43   5.68 -999 -999 -999  73.9  73.0 1018.4 -9.9 -9.999 -99.9 -99.99 -9.99
2019/09/15 22:06 EDT    5.43   5.66 -999 -999 -999  73.6  73.0 1018.4 -9.9 -9.999 -99.9 -99.99 -9.99
2019/09/15 22:12 EDT    5.42   5.63 -999 -999 -999  73.6  73.0 1018.4 -9.9 -9.999 -99.9 -99.99 -9.99
2019/09/15 22:18 EDT    5.40   5.61 -999 -999 -999  73.8  73.0 1018.4 -9.9 -9.999 -99.9 -99.99 -9.99
2019/09/15 22:24 EDT    5.38   5.59 -999 -999 -999  73.2  73.0 1018.3 -9.9 -9.999 -99.9 -99.99 -9.99
2019/09/15 22:30 EDT    5.35   5.55 -999 -999 -999  73.2  73.0 1018.2 -9.9 -9.999 -99.9 -99.99 -9.99
2019/09/15 22:36 EDT    5.32   5.51 -999 -999 -999  72.9  73.0 1018.2 -9.9 -9.999 -99.9 -99.99 -9.99
2019/09/15 22:42 EDT    5.29   5.47 -999 -999 -999  72.9  73.0 1018.2 -9.9 -9.999 -99.9 -99.99 -9.99
2019/09/15 22:48 EDT    5.24   5.43 -999 -999 -999  72.9  73.0 1018.2 -9.9 -9.999 -99.9 -99.99 -9.99
2019/09/15 22:54 EDT    5.20   5.36 -999 -999 -999  72.5  73.0 1018.3 -9.9 -9.999 -99.9 -99.99 -9.99
2019/09/15 23:00 EDT    5.14   5.30 -999 -999 -999  72.1  73.0 1018.3 -9.9 -9.999 -99.9 -99.99 -9.99
2019/09/15 23:06 EDT    5.08   5.23 -999 -999 -999  72.0  73.0 1018.3 -9.9 -9.999 -99.9 -99.99 -9.99
2019/09/15 23:12 EDT    5.02   5.16 -999 -999 -999  71.6  73.0 1018.2 -9.9 -9.999 -99.9 -99.99 -9.99
2019/09/15 23:18 EDT    4.95   5.09 -999 -999 -999  71.2  73.0 1018.1 -9.9 -9.999 -99.9 -99.99 -9.99
2019/09/15 23:24 EDT    4.88   5.02 -999 -999 -999  71.2  73.0 1018.1 -9.9 -9.999 -99.9 -99.99 -9.99
2019/09/15 23:30 EDT    4.79   4.94 -999 -999 -999  71.1  73.0 1018.1 -9.9 -9.999 -99.9 -99.99 -9.99
2019/09/15 23:36 EDT    4.71   4.85 -999 -999 -999  70.9  73.0 1018.1 -9.9 -9.999 -99.9 -99.99 -9.99
2019/09/15 23:42 EDT    4.62   4.76 -999 -999 -999  70.7  73.0 1018.0 -9.9 -9.999 -99.9 -99.99 -9.99
2019/09/15 23:48 EDT    4.52   4.65 -999 -999 -999  70.5  73.0 1018.1 -9.9 -9.999 -99.9 -99.99 -9.99
2019/09/15 23:54 EDT    4.42   4.55 -999 -999 -999  70.5  73.0 1018.2 -9.9 -9.999 -99.9 -99.99 -9.99
2019/09/16 00:00 EDT    4.32   4.45 -999 -999 -999  70.2  73.0 1018.3 -9.9 -9.999 -99.9 -99.99 -9.99
2019/09/16 00:06 EDT    4.21   4.36 -999 -999 -999  70.2  73.0 1018.3 -9.9 -9.999 -99.9 -99.99 -9.99
2019/09/16 00:12 EDT    4.10   4.26 -999 -999 -999  70.0  73.0 1018.3 -9.9 -9.999 -99.9 -99.99 -9.99
2019/09/16 00:18 EDT    3.98   4.15 -999 -999 -999  70.0  73.0 1018.3 -9.9 -9.999 -99.9 -99.99 -9.99
2019/09/16 00:24 EDT    3.86   4.05 -999 -999 -999  69.8  73.0 1018.3 -9.9 -9.999 -99.9 -99.99 -9.99
2019/09/16 00:30 EDT    3.74   3.94 -999 -999 -999  69.6  73.0 1018.3 -9.9 -9.999 -99.9 -99.99 -9.99
2019/09/16 00:36 EDT    3.62   3.82 -999 -999 -999  69.6  73.0 1018.2 -9.9 -9.999 -99.9 -99.99 -9.99
2019/09/16 00:42 EDT    3.49   3.71 -999 -999 -999  69.4  73.0 1018.1 -9.9 -9.999 -99.9 -99.99 -9.99
2019/09/16 00:48 EDT    3.37   3.59 -999 -999 -999  69.4  73.0 1018.1 -9.9 -9.999 -99.9 -99.99 -9.99
2019/09/16 00:54 EDT    3.24   3.48 -999 -999 -999  69.3  73.0 1018.1 -9.9 -9.999 -99.9 -99.99 -9.99
2019/09/16 01:00 EDT    3.11   3.36 -999 -999 -999  69.3  73.0 1018.2 -9.9 -9.999 -99.9 -99.99 -9.99
2019/09/16 01:06 EDT    2.98   3.23 -999 -999 -999  69.3  73.0 1018.3 -9.9 -9.999 -99.9 -99.99 -9.99
2019/09/16 01:12 EDT    2.86   3.11 -999 -999 -999  69.3  73.0 1018.2 -9.9 -9.999 -99.9 -99.99 -9.99
2019/09/16 01:18 EDT    2.73   2.97 -999 -999 -999  69.3  73.0 1018.1 -9.9 -9.999 -99.9 -99.99 -9.99
2019/09/16 01:24 EDT    2.60   2.87 -999 -999 -999  69.1  73.0 1018.2 -9.9 -9.999 -99.9 -99.99 -9.99
2019/09/16 01:30 EDT    2.48   2.75 -999 -999 -999  69.3  73.0 1018.1 -9.9 -9.999 -99.9 -99.99 -9.99
2019/09/16 01:36 EDT    2.36   2.64 -999 -999 -999  69.3  73.0 1018.1 -9.9 -9.999 -99.9 -99.99 -9.99
2019/09/16 01:42 EDT    2.23   2.52 -999 -999 -999  69.3  73.0 1018.0 -9.9 -9.999 -99.9 -99.99 -9.99
2019/09/16 01:48 EDT    2.12   2.43 -999 -999 -999  69.3  73.0 1018.0 -9.9 -9.999 -99.9 -99.99 -9.99
2019/09/16 01:54 EDT    2.00   2.31 -999 -999 -999  69.3  73.0 1018.0 -9.9 -9.999 -99.9 -99.99 -9.99
2019/09/16 02:00 EDT    1.88   2.21 -999 -999 -999  69.4  73.0 1018.0 -9.9 -9.999 -99.9 -99.99 -9.99
2019/09/16 02:06 EDT    1.77 -99.99 -999 -999 -999 -99.9 -99.9 -999.9 -9.9 -9.999 -99.9 -99.99 -9.99
2019/09/16 02:12 EDT    1.66 -99.99 -999 -999 -999 -99.9 -99.9 -999.9 -9.9 -9.999 -99.9 -99.99 -9.99
2019/09/16 02:18 EDT    1.56 -99.99 -999 -999 -999 -99.9 -99.9 -999.9 -9.9 -9.999 -99.9 -99.99 -9.99
2019/09/16 02:24 EDT    1.45 -99.99 -999 -999 -999 -99.9 -99.9 -999.9 -9.9 -9.999 -99.9 -99.99 -9.99
2019/09/16 02:30 EDT    1.35 -99.99 -999 -999 -999 -99.9 -99.9 -999.9 -9.9 -9.999 -99.9 -99.99 -9.99
2019/09/16 02:36 EDT    1.25 -99.99 -999 -999 -999 -99.9 -99.9 -999.9 -9.9 -9.999 -99.9 -99.99 -9.99
2019/09/16 02:42 EDT    1.16 -99.99 -999 -999 -999 -99.9 -99.9 -999.9 -9.9 -9.999 -99.9 -99.99 -9.99
2019/09/16 02:48 EDT    1.07 -99.99 -999 -999 -999 -99.9 -99.9 -999.9 -9.9 -9.999 -99.9 -99.99 -9.99
2019/09/16 02:54 EDT    0.98 -99.99 -999 -999 -999 -99.9 -99.9 -999.9 -9.9 -9.999 -99.9 -99.99 -9.99
2019/09/16 03:00 EDT    0.90 -99.99 -999 -999 -999 -99.9 -99.9 -999.9 -9.9 -9.999 -99.9 -99.99 -9.99
2019/09/16 03:06 EDT    0.82 -99.99 -999 -999 -999 -99.9 -99.9 -999.9 -9.9 -9.999 -99.9 -99.99 -9.99
2019/09/16 03:12 EDT    0.74 -99.99 -999 -999 -999 -99.9 -99.9 -999.9 -9.9 -9.999 -99.9 -99.99 -9.99
2019/09/16 03:18 EDT    0.67 -99.99 -999 -999 -999 -99.9 -99.9 -999.9 -9.9 -9.999 -99.9 -99.99 -9.99
2019/09/16 03:24 EDT    0.60 -99.99 -999 -999 -999 -99.9 -99.9 -999.9 -9.9 -9.999 -99.9 -99.99 -9.99
2019/09/16 03:30 EDT    0.54 -99.99 -999 -999 -999 -99.9 -99.9 -999.9 -9.9 -9.999 -99.9 -99.99 -9.99
2019/09/16 03:36 EDT    0.48 -99.99 -999 -999 -999 -99.9 -99.9 -999.9 -9.9 -9.999 -99.9 -99.99 -9.99
2019/09/16 03:42 EDT    0.43 -99.99 -999 -999 -999 -99.9 -99.9 -999.9 -9.9 -9.999 -99.9 -99.99 -9.99
2019/09/16 03:48 EDT    0.38 -99.99 -999 -999 -999 -99.9 -99.9 -999.9 -9.9 -9.999 -99.9 -99.99 -9.99
2019/09/16 03:54 EDT    0.34 -99.99 -999 -999 -999 -99.9 -99.9 -999.9 -9.9 -9.999 -99.9 -99.99 -9.99
2019/09/16 04:00 EDT    0.30 -99.99 -999 -999 -999 -99.9 -99.9 -999.9 -9.9 -9.999 -99.9 -99.99 -9.99
2019/09/16 04:06 EDT    0.27 -99.99 -999 -999 -999 -99.9 -99.9 -999.9 -9.9 -9.999 -99.9 -99.99 -9.99
2019/09/16 04:12 EDT    0.25 -99.99 -999 -999 -999 -99.9 -99.9 -999.9 -9.9 -9.999 -99.9 -99.99 -9.99
2019/09/16 04:18 EDT    0.23 -99.99 -999 -999 -999 -99.9 -99.9 -999.9 -9.9 -9.999 -99.9 -99.99 -9.99
2019/09/16 04:24 EDT    0.22 -99.99 -999 -999 -999 -99.9 -99.9 -999.9 -9.9 -9.999 -99.9 -99.99 -9.99
2019/09/16 04:30 EDT    0.22 -99.99 -999 -999 -999 -99.9 -99.9 -999.9 -9.9 -9.999 -99.9 -99.99 -9.99
2019/09/16 04:36 EDT    0.22 -99.99 -999 -999 -999 -99.9 -99.9 -999.9 -9.9 -9.999 -99.9 -99.99 -9.99
2019/09/16 04:42 EDT    0.23 -99.99 -999 -999 -999 -99.9 -99.9 -999.9 -9.9 -9.999 -99.9 -99.99 -9.99
2019/09/16 04:48 EDT    0.26 -99.99 -999 -999 -999 -99.9 -99.9 -999.9 -9.9 -9.999 -99.9 -99.99 -9.99
2019/09/16 04:54 EDT    0.29 -99.99 -999 -999 -999 -99.9 -99.9 -999.9 -9.9 -9.999 -99.9 -99.99 -9.99
2019/09/16 05:00 EDT    0.32 -99.99 -999 -999 -999 -99.9 -99.9 -999.9 -9.9 -9.999 -99.9 -99.99 -9.99
2019/09/16 05:06 EDT    0.37 -99.99 -999 -999 -999 -99.9 -99.9 -999.9 -9.9 -9.999 -99.9 -99.99 -9.99
2019/09/16 05:12 EDT    0.43 -99.99 -999 -999 -999 -99.9 -99.9 -999.9 -9.9 -9.999 -99.9 -99.99 -9.99
2019/09/16 05:18 EDT    0.49 -99.99 -999 -999 -999 -99.9 -99.9 -999.9 -9.9 -9.999 -99.9 -99.99 -9.99
2019/09/16 05:24 EDT    0.57 -99.99 -999 -999 -999 -99.9 -99.9 -999.9 -9.9 -9.999 -99.9 -99.99 -9.99
2019/09/16 05:30 EDT    0.65 -99.99 -999 -999 -999 -99.9 -99.9 -999.9 -9.9 -9.999 -99.9 -99.99 -9.99
2019/09/16 05:36 EDT    0.74 -99.99 -999 -999 -999 -99.9 -99.9 -999.9 -9.9 -9.999 -99.9 -99.99 -9.99
2019/09/16 05:42 EDT    0.84 -99.99 -999 -999 -999 -99.9 -99.9 -999.9 -9.9 -9.999 -99.9 -99.99 -9.99
2019/09/16 05:48 EDT    0.95 -99.99 -999 -999 -999 -99.9 -99.9 -999.9 -9.9 -9.999 -99.9 -99.99 -9.99
2019/09/16 05:54 EDT    1.06 -99.99 -999 -999 -999 -99.9 -99.9 -999.9 -9.9 -9.999 -99.9 -99.99 -9.99
2019/09/16 06:00 EDT    1.19 -99.99 -999 -999 -999 -99.9 -99.9 -999.9 -9.9 -9.999 -99.9 -99.99 -9.99
2019/09/16 06:06 EDT    1.32 -99.99 -999 -999 -999 -99.9 -99.9 -999.9 -9.9 -9.999 -99.9 -99.99 -9.99
2019/09/16 06:12 EDT    1.45 -99.99 -999 -999 -999 -99.9 -99.9 -999.9 -9.9 -9.999 -99.9 -99.99 -9.99
2019/09/16 06:18 EDT    1.59 -99.99 -999 -999 -999 -99.9 -99.9 -999.9 -9.9 -9.999 -99.9 -99.99 -9.99
2019/09/16 06:24 EDT    1.74 -99.99 -999 -999 -999 -99.9 -99.9 -999.9 -9.9 -9.999 -99.9 -99.99 -9.99
2019/09/16 06:30 EDT    1.89 -99.99 -999 -999 -999 -99.9 -99.9 -999.9 -9.9 -9.999 -99.9 -99.99 -9.99
2019/09/16 06:36 EDT    2.04 -99.99 -999 -999 -999 -99.9 -99.9 -999.9 -9.9 -9.999 -99.9 -99.99 -9.99
2019/09/16 06:42 EDT    2.20 -99.99 -999 -999 -999 -99.9 -99.9 -999.9 -9.9 -9.999 -99.9 -99.99 -9.99
2019/09/16 06:48 EDT    2.36 -99.99 -999 -999 -999 -99.9 -99.9 -999.9 -9.9 -9.999 -99.9 -99.99 -9.99
2019/09/16 06:54 EDT    2.52 -99.99 -999 -999 -999 -99.9 -99.9 -999.9 -9.9 -9.999 -99.9 -99.99 -9.99
2019/09/16 07:00 EDT    2.68 -99.99 -999 -999 -999 -99.9 -99.9 -999.9 -9.9 -9.999 -99.9 -99.99 -9.99
2019/09/16 07:06 EDT    2.84 -99.99 -999 -999 -999 -99.9 -99.9 -999.9 -9.9 -9.999 -99.9 -99.99 -9.99
2019/09/16 07:12 EDT    2.99 -99.99 -999 -999 -999 -99.9 -99.9 -999.9 -9.9 -9.999 -99.9 -99.99 -9.99
2019/09/16 07:18 EDT    3.15 -99.99 -999 -999 -999 -99.9 -99.9 -999.9 -9.9 -9.999 -99.9 -99.99 -9.99
2019/09/16 07:24 EDT    3.30 -99.99 -999 -999 -999 -99.9 -99.9 -999.9 -9.9 -9.999 -99.9 -99.99 -9.99
2019/09/16 07:30 EDT    3.45 -99.99 -999 -999 -999 -99.9 -99.9 -999.9 -9.9 -9.999 -99.9 -99.99 -9.99
2019/09/16 07:36 EDT    3.60 -99.99 -999 -999 -999 -99.9 -99.9 -999.9 -9.9 -9.999 -99.9 -99.99 -9.99
2019/09/16 07:42 EDT    3.74 -99.99 -999 -999 -999 -99.9 -99.9 -999.9 -9.9 -9.999 -99.9 -99.99 -9.99
2019/09/16 07:48 EDT    3.88 -99.99 -999 -999 -999 -99.9 -99.9 -999.9 -9.9 -9.999 -99.9 -99.99 -9.99
2019/09/16 07:54 EDT    4.01 -99.99 -999 -999 -999 -99.9 -99.9 -999.9 -9.9 -9.999 -99.9 -99.99 -9.99
2019/09/16 08:00 EDT    4.14 -99.99 -999 -999 -999 -99.9 -99.9 -999.9 -9.9 -9.999 -99.9 -99.99 -9.99
2019/09/16 08:06 EDT    4.26 -99.99 -999 -999 -999 -99.9 -99.9 -999.9 -9.9 -9.999 -99.9 -99.99 -9.99
2019/09/16 08:12 EDT    4.38 -99.99 -999 -999 -999 -99.9 -99.9 -999.9 -9.9 -9.999 -99.9 -99.99 -9.99